Terminal Aerodrome Forecast
Issued by NWS Spokane, WA

Home | Current Version | Previous Version | Text Only | Print | Product List | Glossary On
Versions: 1 2 3 4 5 6 7 8 9 10 11 12
000
FTUS46 KOTX 271740
TAFGEG
TAF
KGEG 271740Z 2718/2818 17006KT P6SM SCT110
     FM271900 22012G19KT P6SM FEW250
     FM280200 21008KT P6SM FEW250
     FM280800 16006KT P6SM FEW250=

USA.gov is the U.S. government's official web portal to all federal, state and local government web resources and services.